sensor_id;sensor_type;location;lat;lon;timestamp;P1;P4;P2;P0;N10;N4;N25;N1;N05;TS
83101;SPS30;72973;51.784;4.660;2024-03-23T00:55:46;4.59;4.31;3.77;2.95;23.53;23.52;23.44;22.77;18.98;0.62
83101;SPS30;72973;51.784;4.660;2024-03-23T00:58:16;4.61;4.37;3.90;3.15;25.14;25.12;25.05;24.46;20.62;0.60
83101;SPS30;72973;51.784;4.660;2024-03-23T01:00:46;4.89;4.62;4.09;3.27;26.07;26.06;25.98;25.32;21.26;0.61
83101;SPS30;72973;51.784;4.660;2024-03-23T01:03:18;5.95;5.59;4.89;3.81;30.42;30.40;30.30;29.42;24.52;0.64
83101;SPS30;72973;51.784;4.660;2024-03-23T01:05:48;6.46;6.06;5.27;4.08;32.59;32.57;32.45;31.48;26.17;0.66
83101;SPS30;72973;51.784;4.660;2024-03-23T01:08:19;6.11;5.73;5.00;3.89;31.03;31.02;30.91;30.00;24.97;0.64
83101;SPS30;72973;51.784;4.660;2024-03-23T01:11:07;6.33;5.95;5.20;4.06;32.37;32.36;32.24;31.31;26.10;0.64
83101;SPS30;72973;51.784;4.660;2024-03-23T01:13:36;6.63;6.28;5.59;4.50;35.93;35.91;35.81;34.95;29.43;0.62
83101;SPS30;72973;51.784;4.660;2024-03-23T01:16:02;6.91;6.52;5.75;4.56;36.37;36.35;36.24;35.28;29.56;0.64
83101;SPS30;72973;51.784;4.660;2024-03-23T01:18:29;7.89;7.49;6.72;5.47;43.62;43.60;43.49;42.51;35.91;0.61
83101;SPS30;72973;51.784;4.660;2024-03-23T01:20:55;7.00;6.71;6.13;5.13;40.97;40.95;40.86;40.12;34.20;0.60
83101;SPS30;72973;51.784;4.660;2024-03-23T01:23:25;6.87;6.60;6.06;5.11;40.79;40.78;40.69;39.99;34.16;0.60
83101;SPS30;72973;51.784;4.660;2024-03-23T01:25:54;6.60;6.34;5.85;4.96;39.60;39.58;39.50;38.85;33.24;0.60
83101;SPS30;72973;51.784;4.660;2024-03-23T01:28:21;6.80;6.57;6.12;5.27;42.09;42.08;42.00;41.40;35.58;0.60
83101;SPS30;72973;51.784;4.660;2024-03-23T01:30:48;6.71;6.52;6.13;5.36;42.76;42.75;42.69;42.16;36.38;0.58
83101;SPS30;72973;51.784;4.660;2024-03-23T01:33:15;7.11;6.91;6.52;5.72;45.64;45.63;45.56;45.03;38.89;0.59
83101;SPS30;72973;51.784;4.660;2024-03-23T01:35:45;6.86;6.70;6.40;5.71;45.60;45.59;45.54;45.11;39.14;0.57
83101;SPS30;72973;51.784;4.660;2024-03-23T01:38:12;7.60;7.42;7.05;6.26;49.95;49.94;49.88;49.37;42.78;0.59
83101;SPS30;72973;51.784;4.660;2024-03-23T01:40:39;8.60;8.37;7.91;6.97;55.60;55.59;55.51;54.89;47.46;0.58
83101;SPS30;72973;51.784;4.660;2024-03-23T01:43:06;8.83;8.66;8.33;7.49;59.83;59.82;59.76;59.26;51.55;0.57
83101;SPS30;72973;51.784;4.660;2024-03-23T01:45:34;8.11;7.98;7.73;7.01;55.98;55.97;55.93;55.53;48.41;0.54
83101;SPS30;72973;51.784;4.660;2024-03-23T01:48:02;8.55;8.38;8.04;7.21;57.59;57.58;57.52;57.02;49.57;0.54
83101;SPS30;72973;51.784;4.660;2024-03-23T01:50:29;8.70;8.53;8.20;7.37;58.81;58.80;58.74;58.24;50.64;0.56
83101;SPS30;72973;51.784;4.660;2024-03-23T01:53:04;8.40;8.28;8.06;7.37;58.80;58.79;58.75;58.38;50.99;0.55
83101;SPS30;72973;51.784;4.660;2024-03-23T01:55:32;8.25;8.11;7.85;7.11;56.78;56.76;56.71;56.30;49.07;0.56
83101;SPS30;72973;51.784;4.660;2024-03-23T01:57:59;8.43;8.30;8.04;7.30;58.31;58.29;58.25;57.84;50.43;0.55
83101;SPS30;72973;51.784;4.660;2024-03-23T02:00:26;9.02;8.87;8.56;7.74;61.79;61.77;61.72;61.25;53.35;0.56
83101;SPS30;72973;51.784;4.660;2024-03-23T02:02:54;8.19;8.04;7.75;7.01;55.93;55.91;55.86;55.43;48.27;0.55
83101;SPS30;72973;51.784;4.660;2024-03-23T02:05:27;7.81;7.65;7.33;6.57;52.42;52.40;52.35;51.88;45.08;0.55
83101;SPS30;72973;51.784;4.660;2024-03-23T02:07:56;7.41;7.32;7.15;6.57;52.43;52.42;52.38;52.09;45.54;0.53
83101;SPS30;72973;51.784;4.660;2024-03-23T02:10:23;8.22;8.07;7.78;7.01;55.97;55.96;55.90;55.46;48.26;0.56
83101;SPS30;72973;51.784;4.660;2024-03-23T02:12:49;8.42;8.25;7.93;7.13;56.95;56.93;56.88;56.40;49.05;0.56
83101;SPS30;72973;51.784;4.660;2024-03-23T02:15:17;8.05;7.91;7.63;6.89;54.97;54.96;54.91;54.48;47.43;0.57
83101;SPS30;72973;51.784;4.660;2024-03-23T02:17:44;8.28;8.14;7.87;7.13;56.93;56.92;56.87;56.45;49.19;0.55
83101;SPS30;72973;51.784;4.660;2024-03-23T02:20:19;8.78;8.62;8.32;7.52;60.02;60.01;59.96;59.49;51.81;0.54
83101;SPS30;72973;51.784;4.660;2024-03-23T02:22:46;8.17;8.03;7.78;7.06;56.35;56.34;56.29;55.89;48.72;0.56
83101;SPS30;72973;51.784;4.660;2024-03-23T02:25:12;8.39;8.23;7.92;7.13;56.94;56.92;56.87;56.41;49.07;0.57
83101;SPS30;72973;51.784;4.660;2024-03-23T02:27:42;8.25;8.07;7.72;6.90;55.07;55.05;54.99;54.49;47.30;0.57
83101;SPS30;72973;51.784;4.660;2024-03-23T02:30:09;8.06;7.88;7.53;6.71;53.59;53.57;53.51;53.00;45.99;0.56
83101;SPS30;72973;51.784;4.660;2024-03-23T02:32:42;7.31;7.13;6.77;5.99;47.81;47.79;47.73;47.23;40.89;0.55
83101;SPS30;72973;51.784;4.660;2024-03-23T02:35:09;7.80;7.59;7.19;6.34;50.60;50.59;50.52;49.96;43.22;0.57
83101;SPS30;72973;51.784;4.660;2024-03-23T02:37:38;7.95;7.74;7.32;6.45;51.47;51.45;51.39;50.81;43.93;0.56
83101;SPS30;72973;51.784;4.660;2024-03-23T02:40:05;7.91;7.67;7.19;6.25;49.92;49.90;49.83;49.18;42.38;0.59
83101;SPS30;72973;51.784;4.660;2024-03-23T02:42:33;7.01;6.86;6.57;5.87;46.88;46.87;46.82;46.39;40.29;0.55
83101;SPS30;72973;51.784;4.660;2024-03-23T02:45:01;6.89;6.74;6.45;5.76;45.94;45.93;45.88;45.45;39.46;0.57
83101;SPS30;72973;51.784;4.660;2024-03-23T02:47:33;6.91;6.78;6.53;5.89;47.01;47.00;46.95;46.58;40.54;0.55
83101;SPS30;72973;51.784;4.660;2024-03-23T02:50:00;6.17;6.11;5.98;5.52;44.05;44.04;44.01;43.79;38.34;0.53
83101;SPS30;72973;51.784;4.660;2024-03-23T02:52:35;6.56;6.46;6.28;5.73;45.75;45.74;45.71;45.41;39.65;0.57
83101;SPS30;72973;51.784;4.660;2024-03-23T02:55:12;7.15;7.03;6.77;6.12;48.82;48.81;48.76;48.38;42.12;0.56
83101;SPS30;72973;51.784;4.660;2024-03-23T02:57:46;7.37;7.22;6.94;6.23;49.75;49.73;49.68;49.26;42.83;0.56
83101;SPS30;72973;51.784;4.660;2024-03-23T03:00:13;6.87;6.72;6.43;5.75;45.92;45.90;45.86;45.44;39.46;0.56
83101;SPS30;72973;51.784;4.660;2024-03-23T03:02:42;6.41;6.30;6.07;5.49;43.82;43.81;43.77;43.44;37.82;0.55
83101;SPS30;72973;51.784;4.660;2024-03-23T03:05:09;6.36;6.23;5.99;5.39;43.01;43.00;42.96;42.60;37.05;0.55
83101;SPS30;72973;51.784;4.660;2024-03-23T03:07:37;6.39;6.25;5.97;5.33;42.58;42.56;42.52;42.12;36.57;0.55
83101;SPS30;72973;51.784;4.660;2024-03-23T03:10:08;5.97;5.83;5.56;4.94;39.44;39.43;39.38;38.99;33.81;0.58
83101;SPS30;72973;51.784;4.660;2024-03-23T03:12:38;5.34;5.17;4.85;4.21;33.62;33.61;33.56;33.12;28.53;0.58
83101;SPS30;72973;51.784;4.660;2024-03-23T03:15:08;5.97;5.77;5.36;4.60;36.72;36.70;36.64;36.10;30.99;0.59
83101;SPS30;72973;51.784;4.660;2024-03-23T03:17:43;5.80;5.54;5.04;4.19;33.47;33.45;33.37;32.73;27.84;0.61
83101;SPS30;72973;51.784;4.660;2024-03-23T03:20:11;5.17;4.94;4.50;3.74;29.86;29.85;29.78;29.21;24.85;0.60
83101;SPS30;72973;51.784;4.660;2024-03-23T03:22:42;5.16;4.94;4.51;3.76;30.01;30.00;29.93;29.37;25.01;0.59
83101;SPS30;72973;51.784;4.660;2024-03-23T03:25:09;5.18;4.90;4.35;3.49;27.83;27.81;27.73;27.04;22.74;0.63
83101;SPS30;72973;51.784;4.660;2024-03-23T03:27:36;5.67;5.30;4.58;3.51;27.99;27.97;27.86;26.98;22.34;0.67
83101;SPS30;72973;51.784;4.660;2024-03-23T03:30:02;6.23;5.81;4.98;3.76;30.00;29.98;29.86;28.84;23.76;0.67
83101;SPS30;72973;51.784;4.660;2024-03-23T03:32:38;5.70;5.27;4.42;3.22;25.66;25.64;25.51;24.48;19.90;0.68
83101;SPS30;72973;51.784;4.660;2024-03-23T03:35:04;5.32;4.92;4.11;2.97;23.72;23.71;23.59;22.61;18.34;0.67
83101;SPS30;72973;51.784;4.660;2024-03-23T03:37:31;6.33;5.80;4.77;3.32;26.48;26.46;26.31;25.06;20.02;0.70
83101;SPS30;72973;51.784;4.660;2024-03-23T03:39:58;6.36;5.86;4.89;3.50;27.94;27.92;27.78;26.59;21.49;0.70
83101;SPS30;72973;51.784;4.660;2024-03-23T03:42:25;6.18;5.69;4.74;3.39;27.07;27.05;26.91;25.76;20.81;0.71
83101;SPS30;72973;51.784;4.660;2024-03-23T03:44:52;6.59;6.01;4.86;3.28;26.16;26.13;25.97;24.58;19.38;0.73
83101;SPS30;72973;51.784;4.660;2024-03-23T03:47:19;6.86;6.26;5.08;3.46;27.60;27.58;27.41;25.99;20.57;0.71
83101;SPS30;72973;51.784;4.660;2024-03-23T03:49:55;6.97;6.35;5.14;3.47;27.68;27.66;27.48;26.02;20.52;0.74
83101;SPS30;72973;51.784;4.660;2024-03-23T03:52:22;6.99;6.36;5.11;3.41;27.18;27.15;26.97;25.47;19.97;0.75
83101;SPS30;72973;51.784;4.660;2024-03-23T03:54:48;6.24;5.69;4.62;3.13;24.99;24.97;24.81;23.51;18.58;0.75
83101;SPS30;72973;51.784;4.660;2024-03-23T03:57:15;5.99;5.45;4.40;2.95;23.57;23.55;23.40;22.13;17.41;0.74
83101;SPS30;72973;51.784;4.660;2024-03-23T03:59:45;6.59;5.97;4.74;3.08;24.57;24.54;24.37;22.89;17.74;0.77
83101;SPS30;72973;51.784;4.660;2024-03-23T04:02:12;6.98;6.29;4.94;3.12;24.86;24.83;24.64;23.02;17.60;0.80
83101;SPS30;72973;51.784;4.660;2024-03-23T04:04:38;7.43;6.65;5.12;3.09;24.67;24.64;24.42;22.59;16.88;0.82
83101;SPS30;72973;51.784;4.660;2024-03-23T04:07:05;6.62;5.97;4.68;2.95;23.57;23.54;23.35;21.82;16.67;0.78
83101;SPS30;72973;51.784;4.660;2024-03-23T04:09:32;6.41;5.78;4.53;2.85;22.77;22.74;22.56;21.07;16.10;0.77
83101;SPS30;72973;51.784;4.660;2024-03-23T04:11:59;6.88;6.19;4.81;2.98;23.78;23.75;23.55;21.92;16.59;0.79
83101;SPS30;72973;51.784;4.660;2024-03-23T04:14:26;6.70;6.06;4.79;3.07;24.49;24.46;24.28;22.75;17.53;0.77
83101;SPS30;72973;51.784;4.660;2024-03-23T04:16:53;6.56;5.96;4.80;3.20;25.56;25.54;25.37;23.97;18.81;0.74
83101;SPS30;72973;51.784;4.660;2024-03-23T04:19:24;6.29;5.73;4.62;3.10;24.75;24.73;24.57;23.23;18.28;0.74
83101;SPS30;72973;51.784;4.660;2024-03-23T04:21:51;6.50;5.91;4.75;3.17;25.26;25.23;25.06;23.67;18.55;0.74
83101;SPS30;72973;51.784;4.660;2024-03-23T04:24:17;5.80;5.31;4.34;2.99;23.90;23.87;23.73;22.56;17.96;0.71
83101;SPS30;72973;51.784;4.660;2024-03-23T04:26:46;5.66;5.18;4.24;2.94;23.43;23.41;23.27;22.14;17.64;0.70
83101;SPS30;72973;51.784;4.660;2024-03-23T04:29:13;5.89;5.37;4.34;2.92;23.30;23.28;23.13;21.88;17.24;0.73
83101;SPS30;72973;51.784;4.660;2024-03-23T04:31:40;5.49;4.97;3.94;2.55;20.31;20.28;20.14;18.90;14.62;0.75
83101;SPS30;72973;51.784;4.660;2024-03-23T04:34:07;5.55;5.00;3.93;2.50;19.91;19.88;19.73;18.45;14.14;0.76
83101;SPS30;72973;51.784;4.660;2024-03-23T04:36:36;6.03;5.42;4.23;2.64;21.09;21.07;20.90;19.48;14.81;0.78
83101;SPS30;72973;51.784;4.660;2024-03-23T04:39:06;5.33;4.80;3.75;2.36;18.79;18.77;18.62;17.37;13.24;0.78
83101;SPS30;72973;51.784;4.660;2024-03-23T04:41:36;6.20;5.58;4.37;2.75;21.93;21.91;21.73;20.28;15.47;0.78
83101;SPS30;72973;51.784;4.660;2024-03-23T04:44:07;5.45;4.92;3.89;2.49;19.87;19.85;19.70;18.46;14.21;0.76
83101;SPS30;72973;51.784;4.660;2024-03-23T04:46:34;6.15;5.58;4.46;2.94;23.45;23.43;23.26;21.92;17.10;0.74
83101;SPS30;72973;51.784;4.660;2024-03-23T04:49:01;5.44;4.93;3.93;2.57;20.54;20.52;20.38;19.18;14.91;0.76
83101;SPS30;72973;51.784;4.660;2024-03-23T04:51:35;5.76;5.21;4.14;2.69;21.44;21.42;21.26;19.98;15.48;0.77
83101;SPS30;72973;51.784;4.660;2024-03-23T04:54:07;5.46;4.94;3.91;2.51;20.06;20.03;19.88;18.65;14.39;0.78
83101;SPS30;72973;51.784;4.660;2024-03-23T04:56:34;6.09;5.48;4.27;2.65;21.10;21.08;20.90;19.45;14.74;0.81
83101;SPS30;72973;51.784;4.660;2024-03-23T04:59:02;5.68;5.09;3.94;2.41;19.22;19.19;19.03;17.65;13.27;0.81
83101;SPS30;72973;51.784;4.660;2024-03-23T05:01:32;6.42;5.75;4.44;2.70;21.56;21.53;21.34;19.78;14.83;0.82
83101;SPS30;72973;51.784;4.660;2024-03-23T05:03:59;6.19;5.58;4.36;2.74;21.84;21.82;21.64;20.19;15.39;0.79
83101;SPS30;72973;51.784;4.660;2024-03-23T05:06:26;6.05;5.44;4.24;2.63;21.00;20.97;20.80;19.36;14.69;0.81
83101;SPS30;72973;51.784;4.660;2024-03-23T05:08:52;5.98;5.41;4.29;2.78;22.16;22.14;21.98;20.63;15.96;0.78
83101;SPS30;72973;51.784;4.660;2024-03-23T05:11:19;5.32;4.85;3.93;2.65;21.18;21.16;21.02;19.91;15.71;0.74
83101;SPS30;72973;51.784;4.660;2024-03-23T05:13:47;5.31;4.84;3.91;2.63;20.96;20.94;20.81;19.68;15.50;0.74
83101;SPS30;72973;51.784;4.660;2024-03-23T05:16:14;5.69;5.18;4.17;2.79;22.24;22.22;22.07;20.86;16.38;0.74
83101;SPS30;72973;51.784;4.660;2024-03-23T05:18:40;5.67;5.15;4.13;2.74;21.86;21.84;21.69;20.47;16.02;0.75
83101;SPS30;72973;51.784;4.660;2024-03-23T05:21:07;6.35;5.76;4.61;3.03;24.21;24.19;24.02;22.63;17.65;0.77
83101;SPS30;72973;51.784;4.660;2024-03-23T05:23:33;6.12;5.57;4.49;3.00;23.96;23.94;23.78;22.48;17.66;0.74
83101;SPS30;72973;51.784;4.660;2024-03-23T05:26:00;5.96;5.45;4.44;3.05;24.32;24.30;24.16;22.94;18.22;0.73
83101;SPS30;72973;51.784;4.660;2024-03-23T05:28:26;5.75;5.29;4.36;3.07;24.51;24.49;24.35;23.24;18.65;0.72
83101;SPS30;72973;51.784;4.660;2024-03-23T05:30:54;5.67;5.22;4.32;3.06;24.46;24.44;24.30;23.22;18.69;0.72
83101;SPS30;72973;51.784;4.660;2024-03-23T05:33:21;6.07;5.58;4.63;3.29;26.26;26.24;26.10;24.95;20.10;0.73
83101;SPS30;72973;51.784;4.660;2024-03-23T05:35:55;6.95;6.36;5.21;3.60;28.76;28.74;28.57;27.18;21.66;0.74
83101;SPS30;72973;51.784;4.660;2024-03-23T05:38:26;6.42;5.89;4.86;3.41;27.22;27.20;27.05;25.80;20.68;0.73
83101;SPS30;72973;51.784;4.660;2024-03-23T05:41:00;6.88;6.29;5.13;3.52;28.07;28.04;27.87;26.47;21.02;0.73
83101;SPS30;72973;51.784;4.660;2024-03-23T05:43:29;6.96;6.33;5.10;3.41;27.24;27.22;27.04;25.56;20.08;0.77
83101;SPS30;72973;51.784;4.660;2024-03-23T05:46:12;7.20;6.53;5.21;3.42;27.25;27.22;27.03;25.45;19.81;0.77
83101;SPS30;72973;51.784;4.660;2024-03-23T05:48:39;7.36;6.70;5.42;3.65;29.10;29.07;28.88;27.33;21.53;0.75
83101;SPS30;72973;51.784;4.660;2024-03-23T05:51:14;8.11;7.33;5.77;3.68;29.38;29.35;29.12;27.27;20.95;0.79
83101;SPS30;72973;51.784;4.660;2024-03-23T05:53:42;7.56;6.86;5.48;3.60;28.71;28.68;28.48;26.82;20.89;0.76
83101;SPS30;72973;51.784;4.660;2024-03-23T05:56:09;7.50;6.80;5.43;3.56;28.44;28.41;28.21;26.57;20.69;0.77
83101;SPS30;72973;51.784;4.660;2024-03-23T05:58:36;6.94;6.35;5.19;3.57;28.50;28.48;28.31;26.90;21.40;0.75
83101;SPS30;72973;51.784;4.660;2024-03-23T06:01:02;6.45;5.93;4.90;3.45;27.52;27.50;27.35;26.10;20.95;0.74
83101;SPS30;72973;51.784;4.660;2024-03-23T06:03:29;7.13;6.55;5.41;3.81;30.39;30.36;30.20;28.82;23.13;0.73
83101;SPS30;72973;51.784;4.660;2024-03-23T06:05:56;6.42;5.99;5.13;3.87;30.85;30.83;30.70;29.65;24.42;0.66
83101;SPS30;72973;51.784;4.660;2024-03-23T06:08:23;5.48;5.15;4.49;3.50;27.90;27.89;27.79;26.97;22.46;0.65
83101;SPS30;72973;51.784;4.660;2024-03-23T06:10:50;6.52;6.08;5.20;3.92;31.26;31.24;31.11;30.03;24.72;0.67
83101;SPS30;72973;51.784;4.660;2024-03-23T06:13:20;6.62;6.16;5.26;3.94;31.46;31.44;31.31;30.20;24.82;0.67
83101;SPS30;72973;51.784;4.660;2024-03-23T06:15:50;6.84;6.35;5.39;4.00;31.91;31.88;31.74;30.57;25.03;0.68
83101;SPS30;72973;51.784;4.660;2024-03-23T06:18:17;6.88;6.38;5.39;3.97;31.68;31.65;31.51;30.30;24.74;0.69
83101;SPS30;72973;51.784;4.660;2024-03-23T06:20:44;6.83;6.34;5.37;3.97;31.68;31.66;31.52;30.34;24.81;0.68
83101;SPS30;72973;51.784;4.660;2024-03-23T06:23:11;6.74;6.26;5.31;3.93;31.39;31.37;31.23;30.07;24.61;0.67
83101;SPS30;72973;51.784;4.660;2024-03-23T06:25:39;7.29;6.78;5.77;4.30;34.30;34.28;34.13;32.89;26.98;0.68
83101;SPS30;72973;51.784;4.660;2024-03-23T06:28:05;7.07;6.55;5.52;4.04;32.27;32.25;32.10;30.84;25.13;0.68
83101;SPS30;72973;51.784;4.660;2024-03-23T06:30:32;6.76;6.32;5.44;4.14;33.04;33.02;32.89;31.81;26.29;0.65
83101;SPS30;72973;51.784;4.660;2024-03-23T06:33:05;6.27;5.85;5.02;3.80;30.33;30.31;30.19;29.17;24.06;0.66
83101;SPS30;72973;51.784;4.660;2024-03-23T06:35:34;6.42;6.00;5.17;3.94;31.41;31.39;31.27;30.25;25.00;0.66
83101;SPS30;72973;51.784;4.660;2024-03-23T06:38:01;6.02;5.67;4.98;3.91;31.24;31.22;31.12;30.26;25.28;0.64
83101;SPS30;72973;51.784;4.660;2024-03-23T06:40:28;5.62;5.31;4.69;3.72;29.72;29.71;29.61;28.84;24.18;0.63
83101;SPS30;72973;51.784;4.660;2024-03-23T06:42:55;5.11;4.82;4.26;3.39;27.08;27.06;26.98;26.28;22.05;0.63
83101;SPS30;72973;51.784;4.660;2024-03-23T06:45:21;5.89;5.47;4.65;3.46;27.62;27.60;27.48;26.48;21.70;0.67
83101;SPS30;72973;51.784;4.660;2024-03-23T06:47:49;6.95;6.50;5.62;4.30;34.33;34.31;34.18;33.09;27.40;0.66
83101;SPS30;72973;51.784;4.660;2024-03-23T06:50:16;5.52;5.14;4.38;3.28;26.18;26.16;26.05;25.12;20.64;0.68
83101;SPS30;72973;51.784;4.660;2024-03-23T06:52:44;5.61;5.22;4.44;3.30;26.37;26.35;26.24;25.28;20.73;0.68
83101;SPS30;72973;51.784;4.660;2024-03-23T06:55:10;6.02;5.55;4.63;3.32;26.53;26.51;26.37;25.26;20.43;0.68
83101;SPS30;72973;51.784;4.660;2024-03-23T06:57:36;7.01;6.42;5.27;3.67;29.25;29.22;29.06;27.66;22.09;0.71
83101;SPS30;72973;51.784;4.660;2024-03-23T07:00:12;6.73;6.14;4.98;3.37;26.90;26.87;26.70;25.30;19.98;0.74
83101;SPS30;72973;51.784;4.660;2024-03-23T07:02:39;6.91;6.30;5.09;3.42;27.31;27.29;27.11;25.65;20.21;0.74
83101;SPS30;72973;51.784;4.660;2024-03-23T07:05:06;6.55;5.95;4.77;3.16;25.18;25.16;24.99;23.57;18.42;0.75
83101;SPS30;72973;51.784;4.660;2024-03-23T07:07:32;6.66;6.04;4.81;3.14;25.04;25.01;24.83;23.36;18.14;0.76
83101;SPS30;72973;51.784;4.660;2024-03-23T07:09:59;5.61;5.09;4.08;2.70;21.53;21.51;21.36;20.15;15.75;0.73
83101;SPS30;72973;51.784;4.660;2024-03-23T07:12:25;7.02;6.34;4.98;3.16;25.18;25.15;24.95;23.33;17.87;0.78
83101;SPS30;72973;51.784;4.660;2024-03-23T07:14:51;6.86;6.15;4.76;2.91;23.18;23.15;22.95;21.29;16.00;0.81
83101;SPS30;72973;51.784;4.660;2024-03-23T07:17:18;6.50;5.86;4.60;2.92;23.26;23.23;23.05;21.54;16.49;0.78
83101;SPS30;72973;51.784;4.660;2024-03-23T07:19:44;6.50;5.85;4.58;2.88;22.97;22.94;22.76;21.24;16.20;0.78
83101;SPS30;72973;51.784;4.660;2024-03-23T07:22:12;6.80;6.14;4.85;3.10;24.75;24.72;24.54;22.99;17.69;0.76
83101;SPS30;72973;51.784;4.660;2024-03-23T07:24:38;6.17;5.58;4.41;2.84;22.67;22.65;22.48;21.08;16.27;0.74
83101;SPS30;72973;51.784;4.660;2024-03-23T07:27:05;6.01;5.45;4.36;2.87;22.92;22.89;22.74;21.42;16.71;0.73
83101;SPS30;72973;51.784;4.660;2024-03-23T07:29:36;6.27;5.68;4.51;2.93;23.39;23.36;23.19;21.80;16.90;0.76
83101;SPS30;72973;51.784;4.660;2024-03-23T07:32:02;5.93;5.38;4.30;2.83;22.55;22.53;22.37;21.07;16.42;0.74
83101;SPS30;72973;51.784;4.660;2024-03-23T07:34:29;5.68;5.18;4.20;2.84;22.64;22.62;22.48;21.29;16.80;0.73
83101;SPS30;72973;51.784;4.660;2024-03-23T07:36:55;6.39;5.83;4.74;3.23;25.81;25.79;25.63;24.31;19.26;0.71
83101;SPS30;72973;51.784;4.660;2024-03-23T07:39:22;6.44;5.82;4.61;2.97;23.69;23.67;23.49;22.04;17.01;0.75
83101;SPS30;72973;51.784;4.660;2024-03-23T07:41:48;6.69;6.03;4.73;2.99;23.88;23.85;23.66;22.11;16.92;0.77
83101;SPS30;72973;51.784;4.660;2024-03-23T07:44:14;5.66;5.11;4.04;2.59;20.68;20.65;20.50;19.21;14.80;0.78
83101;SPS30;72973;51.784;4.660;2024-03-23T07:46:41;6.60;5.94;4.64;2.89;23.09;23.07;22.88;21.32;16.21;0.78
83101;SPS30;72973;51.784;4.660;2024-03-23T07:49:07;6.14;5.54;4.35;2.76;21.98;21.95;21.78;20.36;15.59;0.75
83101;SPS30;72973;51.784;4.660;2024-03-23T07:51:33;6.06;5.47;4.32;2.77;22.09;22.06;21.90;20.52;15.80;0.75
83101;SPS30;72973;51.784;4.660;2024-03-23T07:54:01;6.54;5.90;4.65;2.96;23.58;23.55;23.37;21.86;16.78;0.78
83101;SPS30;72973;51.784;4.660;2024-03-23T07:56:28;6.40;5.77;4.52;2.84;22.67;22.64;22.46;20.97;16.00;0.79
83101;SPS30;72973;51.784;4.660;2024-03-23T07:58:55;6.34;5.75;4.59;3.00;23.94;23.91;23.74;22.34;17.38;0.75
83101;SPS30;72973;51.784;4.660;2024-03-23T08:01:21;5.94;5.40;4.34;2.89;23.06;23.04;22.89;21.61;16.94;0.72
83101;SPS30;72973;51.784;4.660;2024-03-23T08:03:49;5.93;5.38;4.28;2.80;22.32;22.30;22.14;20.83;16.18;0.75
83101;SPS30;72973;51.784;4.660;2024-03-23T08:06:16;7.25;6.50;5.02;3.05;24.37;24.34;24.12;22.36;16.77;0.78
83101;SPS30;72973;51.784;4.660;2024-03-23T08:08:46;6.78;6.10;4.76;2.97;23.67;23.64;23.45;21.85;16.60;0.76
83101;SPS30;72973;51.784;4.660;2024-03-23T08:11:13;6.18;5.59;4.44;2.88;22.96;22.94;22.77;21.39;16.57;0.76
83101;SPS30;72973;51.784;4.660;2024-03-23T08:13:40;6.49;5.84;4.57;2.85;22.76;22.73;22.55;21.02;15.99;0.78
83101;SPS30;72973;51.784;4.660;2024-03-23T08:16:08;6.38;5.76;4.53;2.87;22.89;22.87;22.69;21.21;16.25;0.77
83101;SPS30;72973;51.784;4.660;2024-03-23T08:18:34;6.44;5.79;4.51;2.80;22.34;22.32;22.13;20.61;15.62;0.79
83101;SPS30;72973;51.784;4.660;2024-03-23T08:21:02;6.52;5.86;4.56;2.83;22.54;22.52;22.33;20.78;15.74;0.79
83101;SPS30;72973;51.784;4.660;2024-03-23T08:23:31;6.62;5.96;4.67;2.94;23.47;23.44;23.26;21.72;16.58;0.78
83101;SPS30;72973;51.784;4.660;2024-03-23T08:26:06;6.12;5.54;4.40;2.85;22.75;22.73;22.56;21.19;16.41;0.76
83101;SPS30;72973;51.784;4.660;2024-03-23T08:28:34;6.26;5.65;4.45;2.84;22.65;22.63;22.45;21.02;16.14;0.79
83101;SPS30;72973;51.784;4.660;2024-03-23T08:31:02;5.89;5.31;4.16;2.62;20.89;20.87;20.70;19.33;14.76;0.80
83101;SPS30;72973;51.784;4.660;2024-03-23T08:33:31;6.23;5.61;4.37;2.72;21.72;21.69;21.52;20.04;15.22;0.81
83101;SPS30;72973;51.784;4.660;2024-03-23T08:35:58;6.00;5.41;4.25;2.69;21.43;21.41;21.24;19.85;15.18;0.78
83101;SPS30;72973;51.784;4.660;2024-03-23T08:38:26;6.25;5.64;4.46;2.86;22.83;22.81;22.63;21.22;16.35;0.76
83101;SPS30;72973;51.784;4.660;2024-03-23T08:40:57;5.81;5.28;4.24;2.81;22.45;22.42;22.27;21.02;16.46;0.74
83101;SPS30;72973;51.784;4.660;2024-03-23T08:43:37;5.68;5.18;4.20;2.85;22.71;22.69;22.54;21.36;16.87;0.72
83101;SPS30;72973;51.784;4.660;2024-03-23T08:48:38;6.27;5.68;4.51;2.93;23.34;23.32;23.15;21.75;16.84;0.75
83101;SPS30;72973;51.784;4.660;2024-03-23T08:51:06;5.83;5.32;4.33;2.96;23.58;23.56;23.41;22.21;17.60;0.72
83101;SPS30;72973;51.784;4.660;2024-03-23T08:53:34;5.53;5.08;4.19;2.94;23.45;23.43;23.30;22.22;17.81;0.70
83101;SPS30;72973;51.784;4.660;2024-03-23T08:56:01;5.95;5.43;4.41;2.99;23.87;23.85;23.70;22.47;17.76;0.72
83101;SPS30;72973;51.784;4.660;2024-03-23T08:58:29;5.80;5.27;4.23;2.81;22.44;22.41;22.26;21.01;16.46;0.75
83101;SPS30;72973;51.784;4.660;2024-03-23T09:01:00;6.02;5.49;4.45;3.01;24.02;24.00;23.85;22.59;17.84;0.72
83101;SPS30;72973;51.784;4.660;2024-03-23T09:03:29;6.05;5.48;4.35;2.83;22.56;22.53;22.37;21.02;16.30;0.76
83101;SPS30;72973;51.784;4.660;2024-03-23T09:05:57;5.93;5.36;4.26;2.76;22.02;22.00;21.84;20.51;15.88;0.76
83101;SPS30;72973;51.784;4.660;2024-03-23T09:08:24;5.67;5.15;4.14;2.76;21.99;21.97;21.82;20.60;16.15;0.73
83101;SPS30;72973;51.784;4.660;2024-03-23T09:10:51;5.62;5.11;4.11;2.73;21.78;21.76;21.61;20.40;15.98;0.73
83101;SPS30;72973;51.784;4.660;2024-03-23T09:13:18;6.00;5.46;4.38;2.90;23.17;23.15;22.99;21.70;16.98;0.75
83101;SPS30;72973;51.784;4.660;2024-03-23T09:15:46;5.15;4.69;3.80;2.56;20.44;20.42;20.29;19.21;15.15;0.74
83101;SPS30;72973;51.784;4.660;2024-03-23T09:18:14;5.68;5.16;4.15;2.77;22.13;22.11;21.96;20.75;16.28;0.74
83101;SPS30;72973;51.784;4.660;2024-03-23T09:20:40;5.97;5.43;4.36;2.91;23.19;23.16;23.01;21.73;17.04;0.73
83101;SPS30;72973;51.784;4.660;2024-03-23T09:23:07;5.34;4.89;4.00;2.75;21.97;21.95;21.82;20.74;16.50;0.71
83101;SPS30;72973;51.784;4.660;2024-03-23T09:25:37;5.58;5.12;4.20;2.93;23.36;23.34;23.21;22.10;17.66;0.71
83101;SPS30;72973;51.784;4.660;2024-03-23T09:28:05;5.80;5.32;4.38;3.06;24.43;24.41;24.28;23.14;18.52;0.71
83101;SPS30;72973;51.784;4.660;2024-03-23T09:30:33;5.91;5.42;4.45;3.10;24.75;24.73;24.59;23.42;18.72;0.71
83101;SPS30;72973;51.784;4.660;2024-03-23T09:32:59;5.33;4.89;4.01;2.79;22.27;22.25;22.13;21.07;16.83;0.71
83101;SPS30;72973;51.784;4.660;2024-03-23T09:35:27;5.44;4.97;4.03;2.74;21.87;21.85;21.71;20.59;16.28;0.72
83101;SPS30;72973;51.784;4.660;2024-03-23T09:37:53;5.54;5.02;4.02;2.65;21.13;21.10;20.96;19.75;15.41;0.73
83101;SPS30;72973;51.784;4.660;2024-03-23T09:40:19;5.51;5.00;3.99;2.62;20.92;20.90;20.75;19.54;15.23;0.74
83101;SPS30;72973;51.784;4.660;2024-03-23T09:42:52;6.48;5.85;4.62;2.96;23.62;23.59;23.41;21.94;16.89;0.76
83101;SPS30;72973;51.784;4.660;2024-03-23T09:45:23;5.94;5.37;4.26;2.74;21.89;21.87;21.71;20.37;15.73;0.76
83101;SPS30;72973;51.784;4.660;2024-03-23T09:47:54;7.95;7.31;6.06;4.30;34.30;34.27;34.09;32.57;26.22;0.70
83101;SPS30;72973;51.784;4.660;2024-03-23T09:50:22;8.46;7.88;6.73;5.05;40.33;40.30;40.13;38.72;31.85;0.68
83101;SPS30;72973;51.784;4.660;2024-03-23T09:52:48;17.52;15.97;12.92;8.72;69.56;69.49;69.05;65.37;51.55;0.81
83101;SPS30;72973;51.784;4.660;2024-03-23T09:55:15;5.57;5.11;4.20;2.93;23.39;23.37;23.23;22.13;17.70;0.77
83101;SPS30;72973;51.784;4.660;2024-03-23T09:57:42;5.20;4.75;3.88;2.67;21.33;21.31;21.18;20.13;16.01;0.77
83101;SPS30;72973;51.784;4.660;2024-03-23T10:00:08;5.01;4.54;3.62;2.36;18.83;18.82;18.68;17.57;13.65;0.78
83101;SPS30;72973;51.784;4.660;2024-03-23T10:02:38;5.16;4.67;3.71;2.42;19.29;19.27;19.13;17.99;13.96;0.78
83101;SPS30;72973;51.784;4.660;2024-03-23T10:05:04;6.18;5.56;4.33;2.69;21.50;21.47;21.29;19.83;15.04;0.79
83101;SPS30;72973;51.784;4.660;2024-03-23T10:07:45;5.97;5.37;4.18;2.59;20.65;20.63;20.46;19.04;14.42;0.78
83101;SPS30;72973;51.784;4.660;2024-03-23T10:10:11;6.03;5.43;4.25;2.66;21.25;21.22;21.05;19.64;14.96;0.77
83101;SPS30;72973;51.784;4.660;2024-03-23T10:12:40;5.66;5.09;3.98;2.48;19.81;19.79;19.63;18.29;13.91;0.78